sensor_id;sensor_type;location;lat;lon;timestamp;pressure;altitude;pressure_sealevel;temperature;humidity
64967;BME280;51710;38.732;-121.358;2023-03-25T00:02:22;102296.31;;;15.58;34.75
64967;BME280;51710;38.732;-121.358;2023-03-25T00:04:52;102289.94;;;15.59;35.42
64967;BME280;51710;38.732;-121.358;2023-03-25T00:07:20;102280.06;;;15.59;35.22
64967;BME280;51710;38.732;-121.358;2023-03-25T00:09:47;102284.84;;;15.65;36.93
64967;BME280;51710;38.732;-121.358;2023-03-25T00:12:14;102281.38;;;15.73;36.91
64967;BME280;51710;38.732;-121.358;2023-03-25T00:14:42;102270.31;;;15.76;37.37
64967;BME280;51710;38.732;-121.358;2023-03-25T00:17:08;102270.78;;;15.71;36.15
64967;BME280;51710;38.732;-121.358;2023-03-25T00:19:35;102269.00;;;15.62;35.42
64967;BME280;51710;38.732;-121.358;2023-03-25T00:22:02;102268.63;;;15.57;36.45
64967;BME280;51710;38.732;-121.358;2023-03-25T00:24:28;102270.59;;;15.55;35.53
64967;BME280;51710;38.732;-121.358;2023-03-25T00:26:54;102267.69;;;15.49;36.32
64967;BME280;51710;38.732;-121.358;2023-03-25T00:29:20;102273.06;;;15.49;37.00
64967;BME280;51710;38.732;-121.358;2023-03-25T00:31:47;102275.59;;;15.50;36.31
64967;BME280;51710;38.732;-121.358;2023-03-25T00:34:13;102278.66;;;15.55;36.71
64967;BME280;51710;38.732;-121.358;2023-03-25T00:36:41;102275.81;;;15.57;35.69
64967;BME280;51710;38.732;-121.358;2023-03-25T00:39:08;102275.91;;;15.47;36.06
64967;BME280;51710;38.732;-121.358;2023-03-25T00:41:35;102277.88;;;15.45;35.23
64967;BME280;51710;38.732;-121.358;2023-03-25T00:44:03;102285.53;;;15.40;35.67
64967;BME280;51710;38.732;-121.358;2023-03-25T00:46:31;102288.50;;;15.37;35.00
64967;BME280;51710;38.732;-121.358;2023-03-25T00:48:58;102290.09;;;15.30;36.21
64967;BME280;51710;38.732;-121.358;2023-03-25T00:51:26;102281.09;;;15.22;35.07
64967;BME280;51710;38.732;-121.358;2023-03-25T00:53:57;102282.81;;;15.13;35.66
64967;BME280;51710;38.732;-121.358;2023-03-25T00:56:29;102280.44;;;15.10;36.33
64967;BME280;51710;38.732;-121.358;2023-03-25T00:58:56;102268.03;;;15.09;35.72
64967;BME280;51710;38.732;-121.358;2023-03-25T01:01:27;102281.75;;;15.06;36.58
64967;BME280;51710;38.732;-121.358;2023-03-25T01:03:55;102273.81;;;15.05;36.60
64967;BME280;51710;38.732;-121.358;2023-03-25T01:06:25;102280.34;;;15.02;36.42
64967;BME280;51710;38.732;-121.358;2023-03-25T01:08:57;102276.25;;;14.98;36.46
64967;BME280;51710;38.732;-121.358;2023-03-25T01:11:26;102277.97;;;14.90;35.92
64967;BME280;51710;38.732;-121.358;2023-03-25T01:13:54;102279.41;;;14.84;36.06
64967;BME280;51710;38.732;-121.358;2023-03-25T01:16:21;102273.63;;;14.79;36.19
64967;BME280;51710;38.732;-121.358;2023-03-25T01:18:48;102275.63;;;14.77;36.98
64967;BME280;51710;38.732;-121.358;2023-03-25T01:21:14;102290.75;;;14.78;37.83
64967;BME280;51710;38.732;-121.358;2023-03-25T01:23:41;102283.25;;;14.72;37.64
64967;BME280;51710;38.732;-121.358;2023-03-25T01:26:07;102274.66;;;14.68;36.70
64967;BME280;51710;38.732;-121.358;2023-03-25T01:28:33;102278.75;;;14.63;36.27
64967;BME280;51710;38.732;-121.358;2023-03-25T01:31:04;102271.03;;;14.60;36.55
64967;BME280;51710;38.732;-121.358;2023-03-25T01:33:30;102265.97;;;14.57;37.29
64967;BME280;51710;38.732;-121.358;2023-03-25T01:35:58;102272.59;;;14.53;36.91
64967;BME280;51710;38.732;-121.358;2023-03-25T01:38:25;102264.59;;;14.43;37.74
64967;BME280;51710;38.732;-121.358;2023-03-25T01:40:52;102270.81;;;14.34;38.96
64967;BME280;51710;38.732;-121.358;2023-03-25T01:43:20;102269.84;;;14.26;39.31
64967;BME280;51710;38.732;-121.358;2023-03-25T01:45:46;102260.78;;;14.17;39.94
64967;BME280;51710;38.732;-121.358;2023-03-25T01:48:18;102257.81;;;14.11;40.58
64967;BME280;51710;38.732;-121.358;2023-03-25T01:50:57;102260.78;;;14.08;40.85
64967;BME280;51710;38.732;-121.358;2023-03-25T01:53:28;102260.22;;;14.04;40.87
64967;BME280;51710;38.732;-121.358;2023-03-25T01:55:55;102257.97;;;14.00;40.92
64967;BME280;51710;38.732;-121.358;2023-03-25T01:58:22;102257.53;;;13.95;41.26
64967;BME280;51710;38.732;-121.358;2023-03-25T02:00:53;102250.78;;;13.91;41.26
64967;BME280;51710;38.732;-121.358;2023-03-25T02:03:21;102249.94;;;13.90;41.60
64967;BME280;51710;38.732;-121.358;2023-03-25T02:06:03;102254.88;;;13.85;41.65
64967;BME280;51710;38.732;-121.358;2023-03-25T02:08:38;102250.06;;;13.79;42.83
64967;BME280;51710;38.732;-121.358;2023-03-25T02:11:07;102244.13;;;13.76;43.51
64967;BME280;51710;38.732;-121.358;2023-03-25T02:13:36;102244.41;;;13.73;43.36
64967;BME280;51710;38.732;-121.358;2023-03-25T02:16:24;102241.03;;;13.71;43.57
64967;BME280;51710;38.732;-121.358;2023-03-25T02:19:19;102240.22;;;13.70;44.28
64967;BME280;51710;38.732;-121.358;2023-03-25T02:25:23;102239.91;;;13.64;44.87
64967;BME280;51710;38.732;-121.358;2023-03-25T02:40:00;102233.09;;;13.21;44.14
64967;BME280;51710;38.732;-121.358;2023-03-25T02:43:02;102234.72;;;13.13;44.56
64967;BME280;51710;38.732;-121.358;2023-03-25T02:45:33;102238.09;;;13.05;45.06
64967;BME280;51710;38.732;-121.358;2023-03-25T02:48:07;102233.53;;;12.96;45.16
64967;BME280;51710;38.732;-121.358;2023-03-25T02:50:56;102229.44;;;12.92;45.80
64967;BME280;51710;38.732;-121.358;2023-03-25T02:53:28;102230.44;;;12.91;45.34
64967;BME280;51710;38.732;-121.358;2023-03-25T02:56:01;102232.38;;;12.89;45.83
64967;BME280;51710;38.732;-121.358;2023-03-25T02:58:29;102231.38;;;12.90;46.12
64967;BME280;51710;38.732;-121.358;2023-03-25T03:00:56;102237.00;;;12.87;46.04
64967;BME280;51710;38.732;-121.358;2023-03-25T03:03:24;102230.69;;;12.88;46.42
64967;BME280;51710;38.732;-121.358;2023-03-25T03:05:55;102222.69;;;12.88;46.51
64967;BME280;51710;38.732;-121.358;2023-03-25T03:08:29;102220.00;;;12.88;46.65
64967;BME280;51710;38.732;-121.358;2023-03-25T03:24:31;102227.56;;;13.04;45.99
64967;BME280;51710;38.732;-121.358;2023-03-25T03:27:16;102224.16;;;13.02;45.60
64967;BME280;51710;38.732;-121.358;2023-03-25T03:29:53;102222.41;;;12.91;45.40
64967;BME280;51710;38.732;-121.358;2023-03-25T03:32:49;102232.59;;;12.77;45.92
64967;BME280;51710;38.732;-121.358;2023-03-25T03:35:23;102230.94;;;12.76;46.61
64967;BME280;51710;38.732;-121.358;2023-03-25T03:37:58;102244.44;;;12.74;45.74
64967;BME280;51710;38.732;-121.358;2023-03-25T03:40:28;102249.72;;;12.65;48.19
64967;BME280;51710;38.732;-121.358;2023-03-25T03:45:50;102245.47;;;12.32;49.78
64967;BME280;51710;38.732;-121.358;2023-03-25T03:48:25;102251.56;;;12.23;51.13
64967;BME280;51710;38.732;-121.358;2023-03-25T03:50:57;102254.28;;;12.12;51.81
64967;BME280;51710;38.732;-121.358;2023-03-25T03:53:33;102249.03;;;12.01;51.86
64967;BME280;51710;38.732;-121.358;2023-03-25T03:56:06;102252.34;;;11.93;52.38
64967;BME280;51710;38.732;-121.358;2023-03-25T03:58:37;102258.16;;;11.87;53.73
64967;BME280;51710;38.732;-121.358;2023-03-25T04:01:18;102266.84;;;11.80;54.07
64967;BME280;51710;38.732;-121.358;2023-03-25T04:04:05;102263.94;;;11.72;54.19
64967;BME280;51710;38.732;-121.358;2023-03-25T04:06:40;102269.16;;;11.62;55.23
64967;BME280;51710;38.732;-121.358;2023-03-25T04:09:35;102267.25;;;11.53;55.73
64967;BME280;51710;38.732;-121.358;2023-03-25T04:12:13;102274.91;;;11.47;56.24
64967;BME280;51710;38.732;-121.358;2023-03-25T04:14:40;102268.13;;;11.43;56.66
64967;BME280;51710;38.732;-121.358;2023-03-25T04:17:07;102269.22;;;11.40;57.14
64967;BME280;51710;38.732;-121.358;2023-03-25T04:19:33;102264.13;;;11.37;56.98
64967;BME280;51710;38.732;-121.358;2023-03-25T04:22:00;102257.97;;;11.37;57.04
64967;BME280;51710;38.732;-121.358;2023-03-25T04:24:28;102248.25;;;11.35;57.57
64967;BME280;51710;38.732;-121.358;2023-03-25T04:26:58;102251.19;;;11.32;58.13
64967;BME280;51710;38.732;-121.358;2023-03-25T04:29:31;102251.44;;;11.29;58.05
64967;BME280;51710;38.732;-121.358;2023-03-25T04:31:59;102250.84;;;11.26;58.37
64967;BME280;51710;38.732;-121.358;2023-03-25T04:34:27;102244.91;;;11.22;58.01
64967;BME280;51710;38.732;-121.358;2023-03-25T04:36:53;102249.63;;;11.19;58.51
64967;BME280;51710;38.732;-121.358;2023-03-25T04:39:20;102245.63;;;11.13;58.56
64967;BME280;51710;38.732;-121.358;2023-03-25T04:41:51;102250.50;;;11.08;58.36
64967;BME280;51710;38.732;-121.358;2023-03-25T04:44:31;102257.03;;;11.04;58.37
64967;BME280;51710;38.732;-121.358;2023-03-25T04:47:06;102257.88;;;11.05;58.76
64967;BME280;51710;38.732;-121.358;2023-03-25T04:49:34;102264.03;;;11.05;59.20
64967;BME280;51710;38.732;-121.358;2023-03-25T04:52:00;102262.38;;;11.04;59.79
64967;BME280;51710;38.732;-121.358;2023-03-25T04:54:29;102272.16;;;11.04;59.74
64967;BME280;51710;38.732;-121.358;2023-03-25T04:56:55;102266.84;;;11.04;60.22
64967;BME280;51710;38.732;-121.358;2023-03-25T04:59:23;102264.16;;;11.04;60.63
64967;BME280;51710;38.732;-121.358;2023-03-25T05:01:49;102257.03;;;11.04;60.48
64967;BME280;51710;38.732;-121.358;2023-03-25T05:04:17;102260.69;;;11.03;60.29
64967;BME280;51710;38.732;-121.358;2023-03-25T05:06:47;102262.38;;;11.04;60.78
64967;BME280;51710;38.732;-121.358;2023-03-25T05:09:20;102260.69;;;11.03;60.56
64967;BME280;51710;38.732;-121.358;2023-03-25T05:11:52;102267.94;;;11.01;60.63
64967;BME280;51710;38.732;-121.358;2023-03-25T05:14:20;102272.69;;;10.98;61.02
64967;BME280;51710;38.732;-121.358;2023-03-25T05:16:47;102279.34;;;10.92;60.67
64967;BME280;51710;38.732;-121.358;2023-03-25T05:19:14;102276.31;;;10.86;61.04
64967;BME280;51710;38.732;-121.358;2023-03-25T05:21:43;102275.91;;;10.79;61.06
64967;BME280;51710;38.732;-121.358;2023-03-25T05:24:11;102275.44;;;10.74;61.35
64967;BME280;51710;38.732;-121.358;2023-03-25T05:26:40;102284.88;;;10.67;61.06
64967;BME280;51710;38.732;-121.358;2023-03-25T05:29:09;102280.03;;;10.61;61.70
64967;BME280;51710;38.732;-121.358;2023-03-25T05:31:39;102287.53;;;10.56;61.92
64967;BME280;51710;38.732;-121.358;2023-03-25T05:34:06;102288.00;;;10.50;61.93
64967;BME280;51710;38.732;-121.358;2023-03-25T05:36:33;102285.59;;;10.47;62.35
64967;BME280;51710;38.732;-121.358;2023-03-25T05:39:00;102294.03;;;10.41;62.06
64967;BME280;51710;38.732;-121.358;2023-03-25T05:41:27;102283.88;;;10.35;62.14
64967;BME280;51710;38.732;-121.358;2023-03-25T05:44:07;102287.72;;;10.31;62.12
64967;BME280;51710;38.732;-121.358;2023-03-25T05:46:34;102290.63;;;10.28;61.94
64967;BME280;51710;38.732;-121.358;2023-03-25T05:49:01;102289.03;;;10.26;62.09
64967;BME280;51710;38.732;-121.358;2023-03-25T05:51:29;102276.69;;;10.25;61.70
64967;BME280;51710;38.732;-121.358;2023-03-25T05:54:04;102289.88;;;10.26;61.85
64967;BME280;51710;38.732;-121.358;2023-03-25T05:56:35;102290.75;;;10.27;61.60
64967;BME280;51710;38.732;-121.358;2023-03-25T05:59:04;102288.19;;;10.25;61.85
64967;BME280;51710;38.732;-121.358;2023-03-25T06:01:30;102289.03;;;10.26;62.04
64967;BME280;51710;38.732;-121.358;2023-03-25T06:03:58;102277.75;;;10.22;62.05
64967;BME280;51710;38.732;-121.358;2023-03-25T06:06:28;102283.31;;;10.19;62.07
64967;BME280;51710;38.732;-121.358;2023-03-25T06:08:55;102287.91;;;10.17;62.10
64967;BME280;51710;38.732;-121.358;2023-03-25T06:11:21;102287.19;;;10.15;62.23
64967;BME280;51710;38.732;-121.358;2023-03-25T06:13:47;102285.72;;;10.11;62.08
64967;BME280;51710;38.732;-121.358;2023-03-25T06:16:24;102288.47;;;10.09;62.28
64967;BME280;51710;38.732;-121.358;2023-03-25T06:18:54;102282.09;;;10.12;62.36
64967;BME280;51710;38.732;-121.358;2023-03-25T06:21:26;102281.84;;;10.15;62.24
64967;BME280;51710;38.732;-121.358;2023-03-25T06:23:52;102277.63;;;10.12;62.39
64967;BME280;51710;38.732;-121.358;2023-03-25T06:26:21;102275.78;;;10.13;62.90
64967;BME280;51710;38.732;-121.358;2023-03-25T06:28:48;102271.69;;;10.09;62.90
64967;BME280;51710;38.732;-121.358;2023-03-25T06:31:16;102271.16;;;10.04;62.97
64967;BME280;51710;38.732;-121.358;2023-03-25T06:33:43;102266.16;;;9.99;63.49
64967;BME280;51710;38.732;-121.358;2023-03-25T06:36:11;102256.81;;;9.94;63.39
64967;BME280;51710;38.732;-121.358;2023-03-25T06:38:38;102259.47;;;9.83;63.50
64967;BME280;51710;38.732;-121.358;2023-03-25T06:41:05;102260.13;;;9.74;63.71
64967;BME280;51710;38.732;-121.358;2023-03-25T06:43:32;102256.97;;;9.69;63.82
64967;BME280;51710;38.732;-121.358;2023-03-25T06:45:59;102261.91;;;9.62;64.20
64967;BME280;51710;38.732;-121.358;2023-03-25T06:48:25;102257.66;;;9.60;64.22
64967;BME280;51710;38.732;-121.358;2023-03-25T06:50:51;102256.91;;;9.58;64.30
64967;BME280;51710;38.732;-121.358;2023-03-25T06:53:18;102252.69;;;9.55;64.55
64967;BME280;51710;38.732;-121.358;2023-03-25T06:55:44;102251.81;;;9.55;64.44
64967;BME280;51710;38.732;-121.358;2023-03-25T06:58:11;102250.09;;;9.54;64.67
64967;BME280;51710;38.732;-121.358;2023-03-25T07:00:37;102250.97;;;9.54;64.54
64967;BME280;51710;38.732;-121.358;2023-03-25T07:03:04;102254.47;;;9.55;64.50
64967;BME280;51710;38.732;-121.358;2023-03-25T07:05:30;102244.59;;;9.57;64.51
64967;BME280;51710;38.732;-121.358;2023-03-25T07:07:57;102253.06;;;9.62;64.29
64967;BME280;51710;38.732;-121.358;2023-03-25T07:10:23;102251.91;;;9.66;64.06
64967;BME280;51710;38.732;-121.358;2023-03-25T07:12:50;102246.34;;;9.69;63.52
64967;BME280;51710;38.732;-121.358;2023-03-25T07:15:16;102251.31;;;9.73;62.93
64967;BME280;51710;38.732;-121.358;2023-03-25T07:17:42;102251.19;;;9.75;63.15
64967;BME280;51710;38.732;-121.358;2023-03-25T07:20:09;102248.41;;;9.76;62.22
64967;BME280;51710;38.732;-121.358;2023-03-25T07:22:36;102256.06;;;9.81;60.77
64967;BME280;51710;38.732;-121.358;2023-03-25T07:25:02;102249.88;;;9.80;60.84
64967;BME280;51710;38.732;-121.358;2023-03-25T07:27:28;102248.09;;;9.81;59.16
64967;BME280;51710;38.732;-121.358;2023-03-25T07:29:55;102237.31;;;9.82;58.07
64967;BME280;51710;38.732;-121.358;2023-03-25T07:32:21;102242.63;;;9.82;57.37
64967;BME280;51710;38.732;-121.358;2023-03-25T07:34:47;102242.75;;;9.81;56.46
64967;BME280;51710;38.732;-121.358;2023-03-25T07:37:13;102244.69;;;9.79;55.62
64967;BME280;51710;38.732;-121.358;2023-03-25T07:39:40;102243.94;;;9.77;55.80
64967;BME280;51710;38.732;-121.358;2023-03-25T07:42:06;102240.53;;;9.75;56.30
64967;BME280;51710;38.732;-121.358;2023-03-25T07:44:32;102243.19;;;9.75;55.40
64967;BME280;51710;38.732;-121.358;2023-03-25T07:46:59;102247.69;;;9.74;55.36
64967;BME280;51710;38.732;-121.358;2023-03-25T07:49:25;102253.97;;;9.73;55.03
64967;BME280;51710;38.732;-121.358;2023-03-25T07:51:51;102240.03;;;9.70;55.47
64967;BME280;51710;38.732;-121.358;2023-03-25T07:54:18;102249.13;;;9.67;56.13
64967;BME280;51710;38.732;-121.358;2023-03-25T07:56:47;102248.25;;;9.67;55.89
64967;BME280;51710;38.732;-121.358;2023-03-25T07:59:13;102245.09;;;9.62;55.31
64967;BME280;51710;38.732;-121.358;2023-03-25T08:01:39;102253.31;;;9.59;56.14
64967;BME280;51710;38.732;-121.358;2023-03-25T08:04:05;102247.44;;;9.54;55.28
64967;BME280;51710;38.732;-121.358;2023-03-25T08:06:31;102251.31;;;9.50;56.14
64967;BME280;51710;38.732;-121.358;2023-03-25T08:08:58;102257.94;;;9.44;56.51
64967;BME280;51710;38.732;-121.358;2023-03-25T08:11:24;102254.53;;;9.42;57.04
64967;BME280;51710;38.732;-121.358;2023-03-25T08:13:50;102262.63;;;9.41;56.58
64967;BME280;51710;38.732;-121.358;2023-03-25T08:16:16;102254.88;;;9.38;56.43
64967;BME280;51710;38.732;-121.358;2023-03-25T08:18:42;102257.53;;;9.38;56.13
64967;BME280;51710;38.732;-121.358;2023-03-25T08:21:17;102257.53;;;9.38;56.57
64967;BME280;51710;38.732;-121.358;2023-03-25T08:23:51;102251.72;;;9.33;56.62
64967;BME280;51710;38.732;-121.358;2023-03-25T08:26:19;102251.16;;;9.28;56.47
64967;BME280;51710;38.732;-121.358;2023-03-25T08:28:45;102250.66;;;9.23;56.28
64967;BME280;51710;38.732;-121.358;2023-03-25T08:31:12;102251.84;;;9.19;56.56
64967;BME280;51710;38.732;-121.358;2023-03-25T08:33:38;102252.06;;;9.16;56.47
64967;BME280;51710;38.732;-121.358;2023-03-25T08:36:08;102253.16;;;9.13;56.63
64967;BME280;51710;38.732;-121.358;2023-03-25T08:38:45;102250.78;;;9.08;57.17
64967;BME280;51710;38.732;-121.358;2023-03-25T08:41:12;102244.03;;;9.04;56.93
64967;BME280;51710;38.732;-121.358;2023-03-25T08:43:38;102245.72;;;9.05;56.83
64967;BME280;51710;38.732;-121.358;2023-03-25T08:46:05;102244.97;;;9.03;56.75
64967;BME280;51710;38.732;-121.358;2023-03-25T08:48:31;102250.41;;;9.02;56.79
64967;BME280;51710;38.732;-121.358;2023-03-25T08:50:57;102244.69;;;8.95;57.55
64967;BME280;51710;38.732;-121.358;2023-03-25T08:53:24;102259.75;;;8.95;57.10
64967;BME280;51710;38.732;-121.358;2023-03-25T08:55:52;102250.00;;;8.95;56.76
64967;BME280;51710;38.732;-121.358;2023-03-25T08:58:19;102244.03;;;8.92;56.90
64967;BME280;51710;38.732;-121.358;2023-03-25T09:00:48;102248.72;;;8.88;57.39
64967;BME280;51710;38.732;-121.358;2023-03-25T09:03:14;102243.66;;;8.85;57.82
64967;BME280;51710;38.732;-121.358;2023-03-25T09:05:40;102240.44;;;8.80;57.95
64967;BME280;51710;38.732;-121.358;2023-03-25T09:08:07;102240.88;;;8.74;58.90
64967;BME280;51710;38.732;-121.358;2023-03-25T09:10:34;102237.94;;;8.66;59.51
64967;BME280;51710;38.732;-121.358;2023-03-25T09:13:00;102234.94;;;8.58;59.98
64967;BME280;51710;38.732;-121.358;2023-03-25T09:15:26;102242.38;;;8.53;60.28
64967;BME280;51710;38.732;-121.358;2023-03-25T09:17:53;102237.59;;;8.46;61.12
64967;BME280;51710;38.732;-121.358;2023-03-25T09:20:19;102235.28;;;8.41;61.09
64967;BME280;51710;38.732;-121.358;2023-03-25T09:22:45;102232.84;;;8.38;61.53
64967;BME280;51710;38.732;-121.358;2023-03-25T09:25:11;102235.59;;;8.37;61.58
64967;BME280;51710;38.732;-121.358;2023-03-25T09:27:38;102231.34;;;8.34;61.65
64967;BME280;51710;38.732;-121.358;2023-03-25T09:30:06;102239.41;;;8.33;61.95
64967;BME280;51710;38.732;-121.358;2023-03-25T09:32:33;102231.56;;;8.31;62.11
64967;BME280;51710;38.732;-121.358;2023-03-25T09:35:00;102222.63;;;8.32;61.93
64967;BME280;51710;38.732;-121.358;2023-03-25T09:37:26;102226.78;;;8.36;61.07
64967;BME280;51710;38.732;-121.358;2023-03-25T09:39:52;102220.50;;;8.37;61.13
64967;BME280;51710;38.732;-121.358;2023-03-25T09:45:29;102215.00;;;8.40;60.63
64967;BME280;51710;38.732;-121.358;2023-03-25T09:50:42;102223.91;;;8.39;60.61
64967;BME280;51710;38.732;-121.358;2023-03-25T09:55:40;102232.94;;;8.37;60.19
64967;BME280;51710;38.732;-121.358;2023-03-25T09:58:33;102221.59;;;8.35;59.92
64967;BME280;51710;38.732;-121.358;2023-03-25T10:01:14;102217.31;;;8.32;59.75
64967;BME280;51710;38.732;-121.358;2023-03-25T10:06:23;102213.16;;;8.28;60.17
64967;BME280;51710;38.732;-121.358;2023-03-25T10:14:19;102207.31;;;8.23;59.95
64967;BME280;51710;38.732;-121.358;2023-03-25T10:25:27;102188.53;;;8.14;60.36
64967;BME280;51710;38.732;-121.358;2023-03-25T10:27:56;102208.16;;;8.11;61.15
64967;BME280;51710;38.732;-121.358;2023-03-25T10:30:30;102206.47;;;8.10;61.29
64967;BME280;51710;38.732;-121.358;2023-03-25T10:33:00;102204.75;;;8.09;61.21
64967;BME280;51710;38.732;-121.358;2023-03-25T10:35:55;102211.78;;;8.10;61.38
64967;BME280;51710;38.732;-121.358;2023-03-25T10:38:23;102206.47;;;8.10;60.94
64967;BME280;51710;38.732;-121.358;2023-03-25T10:40:51;102196.78;;;8.09;61.50
64967;BME280;51710;38.732;-121.358;2023-03-25T10:43:37;102190.66;;;8.09;61.38
64967;BME280;51710;38.732;-121.358;2023-03-25T10:46:36;102188.31;;;8.04;61.20
64967;BME280;51710;38.732;-121.358;2023-03-25T10:49:20;102187.56;;;8.02;61.80
64967;BME280;51710;38.732;-121.358;2023-03-25T10:51:49;102185.13;;;7.99;61.67
64967;BME280;51710;38.732;-121.358;2023-03-25T10:54:20;102179.06;;;7.97;61.90
64967;BME280;51710;38.732;-121.358;2023-03-25T10:56:51;102180.13;;;7.94;62.13
64967;BME280;51710;38.732;-121.358;2023-03-25T10:59:43;102181.19;;;7.92;62.20
64967;BME280;51710;38.732;-121.358;2023-03-25T11:02:24;102171.66;;;7.89;62.00
64967;BME280;51710;38.732;-121.358;2023-03-25T11:04:55;102174.38;;;7.88;62.41
64967;BME280;51710;38.732;-121.358;2023-03-25T11:07:32;102173.66;;;7.86;62.04
64967;BME280;51710;38.732;-121.358;2023-03-25T11:10:46;102174.81;;;7.82;62.23
64967;BME280;51710;38.732;-121.358;2023-03-25T11:13:09;102173.66;;;7.86;62.39
64967;BME280;51710;38.732;-121.358;2023-03-25T11:15:38;102171.53;;;7.78;62.15
64967;BME280;51710;38.732;-121.358;2023-03-25T11:18:28;102176.69;;;7.67;62.94
64967;BME280;51710;38.732;-121.358;2023-03-25T11:21:00;102175.09;;;7.65;62.63
64967;BME280;51710;38.732;-121.358;2023-03-25T11:23:34;102171.91;;;7.60;62.76
64967;BME280;51710;38.732;-121.358;2023-03-25T11:26:21;102165.88;;;7.58;62.90
64967;BME280;51710;38.732;-121.358;2023-03-25T11:28:54;102159.91;;;7.54;62.89
64967;BME280;51710;38.732;-121.358;2023-03-25T11:31:23;102162.69;;;7.53;63.31
64967;BME280;51710;38.732;-121.358;2023-03-25T11:34:20;102171.66;;;7.50;63.15
64967;BME280;51710;38.732;-121.358;2023-03-25T11:37:00;102168.25;;;7.48;62.96
64967;BME280;51710;38.732;-121.358;2023-03-25T11:39:38;102169.22;;;7.47;62.66
64967;BME280;51710;38.732;-121.358;2023-03-25T11:44:54;102176.63;;;7.42;63.11
64967;BME280;51710;38.732;-121.358;2023-03-25T11:47:33;102178.53;;;7.40;62.64
64967;BME280;51710;38.732;-121.358;2023-03-25T11:50:01;102176.00;;;7.39;62.72
64967;BME280;51710;38.732;-121.358;2023-03-25T11:52:42;102174.28;;;7.38;63.25
64967;BME280;51710;38.732;-121.358;2023-03-25T11:55:19;102174.47;;;7.35;63.22
64967;BME280;51710;38.732;-121.358;2023-03-25T11:57:47;102176.00;;;7.39;62.93
64967;BME280;51710;38.732;-121.358;2023-03-25T12:00:30;102183.41;;;7.34;62.95
64967;BME280;51710;38.732;-121.358;2023-03-25T12:03:05;102183.19;;;7.37;62.55
64967;BME280;51710;38.732;-121.358;2023-03-25T12:05:42;102193.69;;;7.38;62.39
64967;BME280;51710;38.732;-121.358;2023-03-25T12:08:21;102184.22;;;7.34;62.22
64967;BME280;51710;38.732;-121.358;2023-03-25T12:10:59;102190.75;;;7.29;62.28
64967;BME280;51710;38.732;-121.358;2023-03-25T12:16:33;102189.38;;;7.23;63.12
64967;BME280;51710;38.732;-121.358;2023-03-25T12:27:22;102180.31;;;7.13;62.66
64967;BME280;51710;38.732;-121.358;2023-03-25T12:43:28;102186.81;;;6.95;62.37
64967;BME280;51710;38.732;-121.358;2023-03-25T12:46:03;102190.38;;;6.94;62.42
64967;BME280;51710;38.732;-121.358;2023-03-25T12:54:42;102181.44;;;6.82;62.16
64967;BME280;51710;38.732;-121.358;2023-03-25T12:57:29;102182.56;;;6.78;62.60
64967;BME280;51710;38.732;-121.358;2023-03-25T13:00:02;102187.09;;;6.76;62.64
64967;BME280;51710;38.732;-121.358;2023-03-25T13:03:12;102178.44;;;6.74;62.88
64967;BME280;51710;38.732;-121.358;2023-03-25T13:05:59;102176.94;;;6.70;62.48
64967;BME280;51710;38.732;-121.358;2023-03-25T13:08:51;102175.41;;;6.66;62.98
64967;BME280;51710;38.732;-121.358;2023-03-25T13:14:00;102180.69;;;6.66;62.69
64967;BME280;51710;38.732;-121.358;2023-03-25T13:16:30;102191.50;;;6.63;63.04
64967;BME280;51710;38.732;-121.358;2023-03-25T13:19:18;102197.09;;;6.59;63.17
64967;BME280;51710;38.732;-121.358;2023-03-25T13:21:49;102188.28;;;6.58;62.92
64967;BME280;51710;38.732;-121.358;2023-03-25T13:24:38;102186.00;;;6.52;63.15
64967;BME280;51710;38.732;-121.358;2023-03-25T13:27:09;102185.25;;;6.50;63.33
64967;BME280;51710;38.732;-121.358;2023-03-25T13:29:41;102189.06;;;6.46;63.88
64967;BME280;51710;38.732;-121.358;2023-03-25T13:32:16;102185.91;;;6.40;63.87
64967;BME280;51710;38.732;-121.358;2023-03-25T13:34:55;102178.06;;;6.38;64.22
64967;BME280;51710;38.732;-121.358;2023-03-25T13:37:33;102183.56;;;6.35;64.32
64967;BME280;51710;38.732;-121.358;2023-03-25T13:43:06;102187.44;;;6.30;64.20
64967;BME280;51710;38.732;-121.358;2023-03-25T13:51:42;102179.97;;;6.22;63.76
64967;BME280;51710;38.732;-121.358;2023-03-25T13:57:25;102177.50;;;6.19;63.13
64967;BME280;51710;38.732;-121.358;2023-03-25T14:11:20;102189.00;;;6.04;64.07
64967;BME280;51710;38.732;-121.358;2023-03-25T14:13:57;102193.53;;;6.02;63.70
64967;BME280;51710;38.732;-121.358;2023-03-25T14:16:29;102188.44;;;5.99;63.94
64967;BME280;51710;38.732;-121.358;2023-03-25T14:19:02;102185.03;;;5.97;64.06
64967;BME280;51710;38.732;-121.358;2023-03-25T14:21:41;102186.91;;;5.95;64.57
64967;BME280;51710;38.732;-121.358;2023-03-25T14:24:28;102185.91;;;5.98;63.97
64967;BME280;51710;38.732;-121.358;2023-03-25T14:27:34;102187.50;;;6.00;63.91
64967;BME280;51710;38.732;-121.358;2023-03-25T14:32:38;102195.25;;;6.03;63.81
64967;BME280;51710;38.732;-121.358;2023-03-25T14:49:08;102188.19;;;6.18;62.77
64967;BME280;51710;38.732;-121.358;2023-03-25T14:54:28;102192.72;;;6.30;61.97
64967;BME280;51710;38.732;-121.358;2023-03-25T14:57:14;102188.56;;;6.40;61.51
64967;BME280;51710;38.732;-121.358;2023-03-25T14:59:59;102193.38;;;6.47;60.89
64967;BME280;51710;38.732;-121.358;2023-03-25T15:02:30;102188.66;;;6.52;61.00
64967;BME280;51710;38.732;-121.358;2023-03-25T15:05:19;102187.31;;;6.59;61.05